Time;durP1;ratioP1;P1;durP2;ratioP2;P2;SDS_P1;SDS_P2;PMS_P1;PMS_P2;Temp;Humidity;BMP_temperature;BMP_pressure;BME280_temperature;BME280_humidity;BME280_pressure;Samples;Min_cycle;Max_cycle;Signal;HPM_P1;HPM_P2
2021/08/18 00:01:37;;;;;;;14.93;12.65;;;;;;;14.64;100.00;101210.16;4976136;28;20047;-67
2021/08/18 00:04:04;;;;;;;12.98;11.07;;;;;;;14.64;100.00;101220.63;4979376;28;20105;-67
2021/08/18 00:06:30;;;;;;;15.05;12.48;;;;;;;14.63;100.00;101214.53;4975726;28;20050;-68
2021/08/18 00:08:57;;;;;;;14.63;12.40;;;;;;;14.64;100.00;101215.38;4977058;28;20435;-67
2021/08/18 00:11:23;;;;;;;13.98;12.00;;;;;;;14.64;100.00;101215.38;4975769;28;20096;-68
2021/08/18 00:13:50;;;;;;;13.88;12.27;;;;;;;14.61;100.00;101211.97;4978541;28;20055;-67
2021/08/18 00:16:17;;;;;;;14.02;11.80;;;;;;;14.62;100.00;101216.28;4975666;28;20046;-67
2021/08/18 00:18:49;;;;;;;12.55;10.63;;;;;;;14.62;100.00;101211.06;4975553;28;21738;-68
2021/08/18 00:21:15;;;;;;;12.55;9.98;;;;;;;14.66;100.00;101208.34;4978825;28;20052;-68
2021/08/18 00:23:42;;;;;;;12.48;10.10;;;;;;;14.66;100.00;101209.22;4978025;28;20111;-67
2021/08/18 00:26:08;;;;;;;11.07;9.50;;;;;;;14.65;100.00;101212.75;4978210;28;20049;-67
2021/08/18 00:28:34;;;;;;;11.63;9.32;;;;;;;14.60;100.00;101210.25;4978155;28;20531;-67
2021/08/18 00:31:01;;;;;;;12.25;9.88;;;;;;;14.57;100.00;101205.09;4979883;28;20054;-68
2021/08/18 00:33:27;;;;;;;11.15;9.20;;;;;;;14.59;100.00;101207.66;4979332;28;20058;-68
2021/08/18 00:35:55;;;;;;;10.68;8.48;;;;;;;14.59;100.00;101208.53;4978119;28;20058;-68
2021/08/18 00:38:22;;;;;;;12.52;9.32;;;;;;;14.59;100.00;101208.53;4977829;28;20133;-67
2021/08/18 00:40:49;;;;;;;11.95;8.65;;;;;;;14.56;100.00;101203.38;4976095;28;20531;-67
2021/08/18 00:43:16;;;;;;;12.13;8.35;;;;;;;14.54;100.00;101205.19;4978921;28;20507;-69
2021/08/18 00:45:43;;;;;;;11.10;8.63;;;;;;;14.58;100.00;101206.81;4977755;28;20053;-68
2021/08/18 00:48:09;;;;;;;10.63;8.90;;;;;;;14.60;100.00;101199.78;4977005;28;20050;-68
2021/08/18 00:50:36;;;;;;;11.68;7.93;;;;;;;14.62;100.00;101194.50;4976194;28;20069;-68
2021/08/18 00:53:04;;;;;;;11.57;8.70;;;;;;;14.58;100.00;101206.81;4974661;28;20786;-68
2021/08/18 00:55:30;;;;;;;11.55;8.77;;;;;;;14.58;100.00;101196.34;4978430;28;20050;-67
2021/08/18 00:57:57;;;;;;;11.20;8.50;;;;;;;14.57;100.00;101199.88;4977578;28;20046;-67
2021/08/18 01:00:25;;;;;;;12.35;8.50;;;;;;;14.58;100.00;101196.34;4976525;28;20050;-68
2021/08/18 01:02:51;;;;;;;11.25;8.50;;;;;;;14.57;100.00;101193.78;4980747;28;20050;-68
2021/08/18 01:05:20;;;;;;;11.95;8.77;;;;;;;14.58;100.00;101191.13;4981051;28;20042;-67
2021/08/18 01:07:48;;;;;;;12.35;9.60;;;;;;;14.59;100.00;101198.06;4981076;28;20046;-69
2021/08/18 01:10:19;;;;;;;12.25;9.82;;;;;;;14.62;100.00;101197.97;4979992;28;20057;-68
2021/08/18 01:12:46;;;;;;;14.07;9.90;;;;;;;14.63;100.00;101209.31;4982250;28;20264;-68
2021/08/18 01:15:15;;;;;;;12.55;9.73;;;;;;;14.65;100.00;101198.78;4982184;28;20054;-68
2021/08/18 01:17:43;;;;;;;13.77;10.55;;;;;;;14.68;100.00;101199.56;4979047;28;20492;-68
2021/08/18 01:20:11;;;;;;;14.45;10.75;;;;;;;14.63;100.00;101204.06;4979750;28;20053;-68
2021/08/18 01:22:38;;;;;;;15.23;11.02;;;;;;;14.62;100.00;101208.44;4981511;28;20057;-67
2021/08/18 01:25:05;;;;;;;16.20;10.90;;;;;;;14.69;100.00;101205.69;4980449;28;20066;-68
2021/08/18 01:27:33;;;;;;;17.60;11.77;;;;;;;14.66;100.00;101210.97;4979656;28;20046;-68
2021/08/18 01:30:01;;;;;;;17.10;11.20;;;;;;;14.67;100.00;101210.97;4979993;28;20133;-67
2021/08/18 01:32:28;;;;;;;16.92;11.98;;;;;;;14.62;100.00;101207.59;4980085;28;20051;-67
2021/08/18 01:34:54;;;;;;;19.05;12.90;;;;;;;14.60;100.00;101204.16;4980494;28;20086;-67
2021/08/18 01:37:21;;;;;;;18.30;13.60;;;;;;;14.65;100.00;101209.25;4981342;28;20043;-67
2021/08/18 01:39:47;;;;;;;19.15;14.15;;;;;;;14.64;100.00;101207.53;4978306;28;20058;-66
2021/08/18 01:42:14;;;;;;;18.50;13.38;;;;;;;14.66;100.00;101209.22;4980314;28;20512;-67
2021/08/18 01:44:40;;;;;;;20.55;14.15;;;;;;;14.67;100.00;101205.75;5026045;22;20052;-68
2021/08/18 01:47:08;;;;;;;21.75;14.38;;;;;;;14.70;100.00;101215.25;5014364;28;20056;-67
2021/08/18 01:49:34;;;;;;;20.20;14.57;;;;;;;14.67;100.00;101210.09;5021327;28;20584;-66
2021/08/18 01:52:01;;;;;;;21.45;15.80;;;;;;;14.65;100.00;101211.88;5022447;28;20058;-67
2021/08/18 01:54:27;;;;;;;21.25;14.85;;;;;;;14.69;100.00;101218.78;5007473;28;20077;-65
2021/08/18 01:56:53;;;;;;;23.38;16.50;;;;;;;14.61;100.00;101216.34;4998299;28;20053;-67
2021/08/18 01:59:20;;;;;;;21.80;15.73;;;;;;;14.66;100.00;101218.81;5002348;28;20061;-66
2021/08/18 02:01:46;;;;;;;19.75;15.30;;;;;;;14.67;100.00;101215.34;4997510;28;20046;-67
2021/08/18 02:04:14;;;;;;;21.83;15.05;;;;;;;14.66;100.00;101218.81;5000062;28;20442;-68
2021/08/18 02:06:40;;;;;;;21.88;16.58;;;;;;;14.70;100.00;101212.66;4998006;28;20046;-66
2021/08/18 02:09:07;;;;;;;24.77;17.38;;;;;;;14.72;100.00;101214.31;4996446;28;20061;-67
2021/08/18 02:11:34;;;;;;;28.17;17.63;;;;;;;14.69;100.00;101224.03;4998426;28;20530;-67
2021/08/18 02:14:00;;;;;;;24.73;17.20;;;;;;;14.66;100.00;101214.47;5000008;28;20050;-67
2021/08/18 02:16:26;;;;;;;23.02;17.05;;;;;;;14.65;100.00;101204.00;4996984;28;20458;-67
2021/08/18 02:18:53;;;;;;;25.73;17.52;;;;;;;14.65;100.00;101211.88;4997852;28;20049;-66
2021/08/18 02:21:21;;;;;;;23.00;17.13;;;;;;;14.66;100.00;101210.97;4999853;28;20091;-68
2021/08/18 02:23:47;;;;;;;25.30;16.85;;;;;;;14.69;100.00;101208.31;4998244;28;20058;-67
2021/08/18 02:26:13;;;;;;;25.88;17.83;;;;;;;14.69;100.00;101213.53;4998684;28;20123;-67
2021/08/18 02:28:40;;;;;;;22.98;16.85;;;;;;;14.66;100.00;101217.09;4998321;28;20046;-66
2021/08/18 02:31:06;;;;;;;26.40;17.42;;;;;;;14.69;100.00;101216.16;4997195;28;20425;-67
2021/08/18 02:33:34;;;;;;;25.83;17.88;;;;;;;14.67;100.00;101213.59;4998813;28;20053;-68
2021/08/18 02:36:01;;;;;;;22.45;17.13;;;;;;;14.72;100.00;101211.69;4998537;28;20069;-67
2021/08/18 02:38:28;;;;;;;27.80;17.85;;;;;;;14.69;100.00;101213.53;4998537;28;20049;-67
2021/08/18 02:40:55;;;;;;;23.27;17.10;;;;;;;14.66;100.00;101211.84;4997192;28;20050;-66
2021/08/18 02:43:21;;;;;;;22.60;17.13;;;;;;;14.71;100.00;101211.75;4998443;28;20057;-66
2021/08/18 02:45:48;;;;;;;22.23;17.00;;;;;;;14.71;100.00;101207.34;4998943;28;20054;-67
2021/08/18 02:48:14;;;;;;;27.80;17.00;;;;;;;14.74;100.00;101211.63;4998379;28;20105;-67
2021/08/18 02:50:41;;;;;;;20.35;15.93;;;;;;;14.72;100.00;101208.22;4996902;28;20050;-67
2021/08/18 02:53:07;;;;;;;24.70;17.80;;;;;;;14.72;100.00;101205.63;5000192;28;20057;-66
2021/08/18 02:55:35;;;;;;;23.63;17.42;;;;;;;14.76;100.00;101208.09;4997054;28;20050;-67
2021/08/18 02:58:02;;;;;;;23.13;17.55;;;;;;;14.76;100.00;101207.22;4999097;28;20058;-67
2021/08/18 03:00:28;;;;;;;24.90;17.08;;;;;;;14.74;100.00;101203.78;4996442;28;20108;-68
2021/08/18 03:02:55;;;;;;;24.77;17.33;;;;;;;14.76;100.00;101204.59;4997217;28;20058;-67
2021/08/18 03:05:21;;;;;;;27.00;17.60;;;;;;;14.74;100.00;101206.41;5000013;28;20054;-67
2021/08/18 03:07:48;;;;;;;22.10;16.83;;;;;;;14.82;100.00;101200.94;4999230;28;20116;-67
2021/08/18 03:10:14;;;;;;;21.33;16.20;;;;;;;14.77;100.00;101204.53;4997101;28;20096;-67
2021/08/18 03:12:42;;;;;;;26.98;18.08;;;;;;;14.76;100.00;101199.38;4995784;28;20100;-66
2021/08/18 03:15:09;;;;;;;24.58;17.63;;;;;;;14.72;100.00;101200.38;4998412;28;20050;-66
2021/08/18 03:17:36;;;;;;;25.63;16.77;;;;;;;14.70;100.00;101203.00;4998830;28;20046;-67
2021/08/18 03:20:05;;;;;;;25.75;17.92;;;;;;;14.80;100.00;101211.47;4997951;28;20057;-66
2021/08/18 03:22:31;;;;;;;23.10;16.73;;;;;;;14.79;100.00;101208.88;4996874;28;20054;-66
2021/08/18 03:24:58;;;;;;;26.45;17.83;;;;;;;14.76;100.00;101209.84;4996681;28;20060;-66
2021/08/18 03:27:24;;;;;;;23.05;17.85;;;;;;;14.76;100.00;101208.09;4999262;28;20103;-66
2021/08/18 03:29:52;;;;;;;28.98;17.70;;;;;;;14.77;100.00;101212.41;5000446;28;20058;-66
2021/08/18 03:32:19;;;;;;;24.27;18.33;;;;;;;14.79;100.00;101212.38;4996434;28;20155;-66
2021/08/18 03:34:45;;;;;;;26.55;17.55;;;;;;;14.81;100.00;101215.81;4997810;28;20050;-65
2021/08/18 03:37:12;;;;;;;22.90;17.35;;;;;;;14.77;100.00;101208.94;4997768;28;20049;-66
2021/08/18 03:39:38;;;;;;;25.65;17.35;;;;;;;14.79;100.00;101209.75;4997520;28;20077;-67
2021/08/18 03:42:05;;;;;;;22.55;17.80;;;;;;;14.82;100.00;101214.91;4998280;28;20061;-66
2021/08/18 03:44:32;;;;;;;25.63;17.35;;;;;;;14.80;100.00;101211.47;4998049;28;20113;-66
2021/08/18 03:46:59;;;;;;;23.02;18.50;;;;;;;14.77;100.00;101212.41;4997528;28;20416;-66
2021/08/18 03:49:26;;;;;;;22.60;17.75;;;;;;;14.75;100.00;101206.38;4997352;28;20100;-67
2021/08/18 03:51:52;;;;;;;23.92;17.63;;;;;;;14.76;100.00;101204.59;4994421;28;20058;-66
2021/08/18 03:54:19;;;;;;;22.05;16.85;;;;;;;14.75;100.00;101206.38;4996002;28;20058;-66
2021/08/18 03:56:45;;;;;;;23.02;16.35;;;;;;;14.74;100.00;101212.50;4997264;28;20061;-66
2021/08/18 03:59:12;;;;;;;21.65;16.45;;;;;;;14.77;100.00;101204.53;4997279;28;20181;-66
2021/08/18 04:01:38;;;;;;;21.58;16.88;;;;;;;14.79;100.00;101204.53;4994795;28;20168;-66
2021/08/18 04:04:06;;;;;;;25.85;17.15;;;;;;;14.82;100.00;101203.56;4995763;28;20613;-67
2021/08/18 04:06:33;;;;;;;24.13;16.27;;;;;;;14.83;100.00;101206.13;4996900;28;20065;-66
2021/08/18 04:08:59;;;;;;;18.45;11.30;;;;;;;14.86;100.00;101211.28;4994701;28;20046;-66
2021/08/18 04:11:26;;;;;;;17.85;12.00;;;;;;;14.79;100.00;101220.22;4996562;28;20073;-66
2021/08/18 04:13:53;;;;;;;17.23;10.13;;;;;;;14.73;100.00;101223.88;4995562;28;20038;-66
2021/08/18 04:16:19;;;;;;;13.80;9.75;;;;;;;14.70;100.00;101217.88;4994992;28;20045;-66
2021/08/18 04:18:45;;;;;;;10.95;8.32;;;;;;;14.65;100.00;101225.84;4997320;28;20487;-66
2021/08/18 04:21:14;;;;;;;8.55;6.45;;;;;;;14.61;100.00;101221.56;4995960;28;20057;-66
2021/08/18 04:23:40;;;;;;;8.93;6.13;;;;;;;14.55;100.00;101227.00;4995851;28;20057;-68
2021/08/18 04:26:07;;;;;;;10.25;6.82;;;;;;;14.40;100.00;101223.03;4997257;28;20482;-67
2021/08/18 04:28:33;;;;;;;8.38;6.43;;;;;;;14.35;100.00;101224.91;4993816;28;20502;-66
2021/08/18 04:31:00;;;;;;;9.52;7.18;;;;;;;14.28;100.00;101225.09;4994634;28;20491;-67
2021/08/18 04:33:26;;;;;;;8.27;5.57;;;;;;;14.36;100.00;101235.38;4995661;28;20096;-66
2021/08/18 04:35:53;;;;;;;10.57;6.25;;;;;;;14.35;100.00;101231.03;4994833;28;20057;-66
2021/08/18 04:38:20;;;;;;;10.07;6.07;;;;;;;14.37;100.00;101233.59;5003146;28;20053;-66
2021/08/18 04:40:47;;;;;;;10.32;5.85;;;;;;;14.35;100.00;101232.75;5002710;28;20171;-65
2021/08/18 04:43:14;;;;;;;7.90;5.72;;;;;;;14.37;100.00;101233.59;5000728;28;20054;-65
2021/08/18 04:45:41;;;;;;;7.85;5.40;;;;;;;14.37;100.00;101237.09;5001729;28;20050;-65
2021/08/18 04:48:07;;;;;;;10.77;5.03;;;;;;;14.37;100.00;101228.34;5003003;28;20049;-66
2021/08/18 04:50:34;;;;;;;9.23;5.40;;;;;;;14.37;100.00;101225.75;5002281;28;20567;-66
2021/08/18 04:53:06;;;;;;;9.00;4.93;;;;;;;14.39;100.00;101223.94;4998908;28;20062;-66
2021/08/18 04:55:34;;;;;;;7.32;5.40;;;;;;;14.40;100.00;101228.28;5001075;28;20062;-66
2021/08/18 04:58:01;;;;;;;7.80;5.30;;;;;;;14.41;100.00;101228.22;5002611;28;20054;-67
2021/08/18 05:00:27;;;;;;;7.60;5.18;;;;;;;14.41;100.00;101230.84;5000605;28;20552;-65
2021/08/18 05:02:53;;;;;;;8.90;6.10;;;;;;;14.46;100.00;101228.97;4997617;28;20057;-66
2021/08/18 05:05:20;;;;;;;10.88;6.10;;;;;;;14.48;100.00;101223.69;5002645;28;20064;-66
2021/08/18 05:07:46;;;;;;;7.70;5.43;;;;;;;14.52;100.00;101221.84;5000649;28;20518;-66
2021/08/18 05:10:13;;;;;;;9.73;5.35;;;;;;;14.53;100.00;101224.41;4999281;28;20530;-65
2021/08/18 05:12:41;;;;;;;7.05;4.90;;;;;;;14.56;100.00;101221.72;4999335;28;20053;-67
2021/08/18 05:15:08;;;;;;;9.40;5.50;;;;;;;14.58;100.00;101204.22;4999861;28;20053;-66
2021/08/18 05:17:34;;;;;;;12.88;6.05;;;;;;;14.57;100.00;101204.25;4997533;28;20060;-65
2021/08/18 05:20:01;;;;;;;8.02;5.80;;;;;;;14.58;100.00;101209.44;4999197;28;20065;-66
2021/08/18 05:22:27;;;;;;;9.55;5.35;;;;;;;14.66;100.00;101211.84;5001051;28;20132;-66
2021/08/18 05:24:54;;;;;;;9.57;5.70;;;;;;;14.70;100.00;101210.03;5001202;28;20557;-65
2021/08/18 05:27:20;;;;;;;8.82;5.25;;;;;;;14.73;100.00;101216.03;4999967;28;20045;-66
2021/08/18 05:29:48;;;;;;;7.95;5.18;;;;;;;14.76;100.00;101210.72;4999830;28;20056;-67
2021/08/18 05:32:14;;;;;;;12.05;5.30;;;;;;;14.79;100.00;101204.53;5003232;28;20140;-65
2021/08/18 05:34:41;;;;;;;10.40;5.38;;;;;;;14.85;100.00;101208.72;5004863;28;20050;-66
2021/08/18 05:37:07;;;;;;;7.15;5.18;;;;;;;14.86;100.00;101215.69;5003564;28;20057;-66
2021/08/18 05:39:33;;;;;;;9.82;5.00;;;;;;;14.84;100.00;101215.69;5002701;28;20769;-66
2021/08/18 05:42:00;;;;;;;10.70;5.00;;;;;;;14.86;100.00;101216.53;5003210;28;20053;-66
2021/08/18 05:44:26;;;;;;;7.28;5.15;;;;;;;14.86;100.00;101216.53;5000080;28;20054;-66
2021/08/18 05:46:54;;;;;;;7.78;5.38;;;;;;;14.87;100.00;101213.00;4993476;28;20135;-67
2021/08/18 05:49:21;;;;;;;8.50;5.97;;;;;;;14.97;100.00;101212.72;4995975;28;20046;-67
2021/08/18 05:51:48;;;;;;;10.10;6.47;;;;;;;14.98;100.00;101215.28;4996008;28;20053;-68
2021/08/18 05:54:14;;;;;;;12.68;7.10;;;;;;;14.99;100.00;101210.94;4995642;28;20077;-67
2021/08/18 05:56:41;;;;;;;11.68;7.75;;;;;;;15.03;100.00;101212.53;4998841;28;20050;-67
2021/08/18 05:59:07;;;;;;;14.45;9.48;;;;;;;15.10;100.00;101214.09;5009715;28;20057;-67
2021/08/18 06:01:33;;;;;;;15.23;9.82;;;;;;;15.12;100.00;101212.28;5003236;28;20046;-67
2021/08/18 06:04:01;;;;;;;18.65;12.52;;;;;;;15.15;100.00;101213.94;5006773;28;20057;-67
2021/08/18 06:06:28;;;;;;;19.15;13.82;;;;;;;15.19;100.00;101215.53;5008695;28;20189;-67
2021/08/18 06:08:54;;;;;;;22.00;16.05;;;;;;;15.23;100.00;101214.56;5009103;28;20562;-66
2021/08/18 06:11:22;;;;;;;26.60;17.42;;;;;;;15.28;100.00;101217.03;5004519;28;20108;-66
2021/08/18 06:13:48;;;;;;;25.92;17.25;;;;;;;15.30;100.00;101220.47;5010836;28;20439;-66
2021/08/18 06:16:15;;;;;;;27.50;20.52;;;;;;;15.29;100.00;101219.59;5008208;28;20057;-67
2021/08/18 06:18:41;;;;;;;34.03;21.55;;;;;;;15.31;100.00;101219.56;5009640;28;20054;-66
2021/08/18 06:21:09;;;;;;;28.27;20.50;;;;;;;15.32;100.00;101221.28;5009512;28;20470;-66
2021/08/18 06:23:35;;;;;;;28.13;21.23;;;;;;;15.31;100.00;101225.66;5009317;28;20112;-65
2021/08/18 06:26:02;;;;;;;30.88;21.60;;;;;;;15.33;100.00;101223.84;5010870;28;20045;-67
2021/08/18 06:28:28;;;;;;;36.22;23.20;;;;;;;15.34;100.00;101228.19;5002983;28;20038;-67
2021/08/18 06:30:55;;;;;;;32.63;22.42;;;;;;;15.42;100.00;101230.56;5005919;28;20104;-67
2021/08/18 06:33:21;;;;;;;29.85;22.27;;;;;;;15.43;100.00;101221.78;5007524;28;20053;-68
2021/08/18 06:35:48;;;;;;;33.40;22.48;;;;;;;15.46;100.00;101226.94;5009379;28;20058;-67
2021/08/18 06:38:15;;;;;;;32.35;23.30;;;;;;;15.46;100.00;101224.31;5009848;28;20527;-67
2021/08/18 06:40:42;;;;;;;32.88;23.52;;;;;;;15.46;100.00;101237.41;5002051;28;20041;-68
2021/08/18 06:43:08;;;;;;;34.70;23.48;;;;;;;15.48;100.00;101232.13;5005508;28;20573;-67
2021/08/18 06:45:35;;;;;;;31.85;22.67;;;;;;;15.52;100.00;101237.22;5007808;28;20516;-67
2021/08/18 06:48:01;;;;;;;34.28;23.98;;;;;;;15.55;100.00;101231.03;5007012;28;20047;-67
2021/08/18 06:50:27;;;;;;;32.03;22.90;;;;;;;15.58;100.00;101232.69;5004780;28;20400;-67
2021/08/18 06:52:54;;;;;;;35.28;23.63;;;;;;;15.58;100.00;101232.69;5007612;28;20058;-68
2021/08/18 06:55:22;;;;;;;35.90;24.90;;;;;;;15.63;100.00;101225.53;5006693;28;20439;-67
2021/08/18 06:57:49;;;;;;;31.13;23.08;;;;;;;15.62;100.00;101239.56;5004316;28;20056;-67
2021/08/18 07:00:16;;;;;;;31.35;23.10;;;;;;;15.66;100.00;101233.28;4998451;28;20054;-68
2021/08/18 07:02:45;;;;;;;37.55;23.67;;;;;;;15.64;100.00;101235.97;5006945;28;20151;-67
2021/08/18 07:05:12;;;;;;;33.53;22.90;;;;;;;15.66;100.00;101236.78;5006389;28;20046;-67
2021/08/18 07:07:39;;;;;;;32.25;23.55;;;;;;;15.73;100.00;101239.22;5009057;28;20108;-67
2021/08/18 07:10:07;;;;;;;32.45;23.20;;;;;;;15.79;100.00;101232.00;5006945;28;20050;-68
2021/08/18 07:12:34;;;;;;;31.67;24.30;;;;;;;15.78;100.00;101237.28;5002376;28;20678;-67
2021/08/18 07:15:01;;;;;;;35.85;23.85;;;;;;;15.77;100.00;101236.44;5008260;28;20054;-68
2021/08/18 07:17:27;;;;;;;30.08;23.00;;;;;;;15.78;100.00;101242.53;5004906;28;20105;-67
2021/08/18 07:19:54;;;;;;;31.70;23.52;;;;;;;15.79;100.00;101239.88;4998417;28;20057;-68
2021/08/18 07:22:20;;;;;;;31.58;22.48;;;;;;;15.80;100.00;101233.72;5006343;28;20046;-67
2021/08/18 07:24:47;;;;;;;35.15;24.85;;;;;;;15.87;100.00;101242.28;4997798;28;20115;-67
2021/08/18 07:27:13;;;;;;;34.60;24.25;;;;;;;15.91;100.00;101243.88;5005520;28;20057;-67
2021/08/18 07:29:41;;;;;;;31.85;24.05;;;;;;;15.95;100.00;101234.13;5002628;28;20096;-67
2021/08/18 07:32:08;;;;;;;32.85;25.23;;;;;;;16.08;100.00;101239.81;5001624;28;20062;-66
2021/08/18 07:34:34;;;;;;;35.08;25.63;;;;;;;16.15;100.00;101234.31;5008029;28;20045;-67
2021/08/18 07:37:01;;;;;;;33.33;24.95;;;;;;;16.35;100.00;101242.41;4996753;28;20052;-66
2021/08/18 07:39:27;;;;;;;34.72;25.40;;;;;;;16.51;100.00;101240.94;5000815;28;20049;-67
2021/08/18 07:41:54;;;;;;;33.95;23.50;;;;;;;16.58;99.79;101244.19;5005017;28;20111;-67
2021/08/18 07:44:20;;;;;;;31.60;24.88;;;;;;;16.65;98.05;101244.84;5007632;28;20100;-67
2021/08/18 07:46:48;;;;;;;29.85;24.33;;;;;;;16.70;97.74;101233.25;5003812;28;20080;-67
2021/08/18 07:49:14;;;;;;;32.78;24.48;;;;;;;16.74;97.93;101234.00;5002491;28;20086;-67
2021/08/18 07:51:41;;;;;;;31.58;24.58;;;;;;;16.82;97.76;101239.81;5006877;28;20069;-66
2021/08/18 07:54:07;;;;;;;28.42;22.60;;;;;;;16.90;97.66;101234.28;4997834;28;20049;-67
2021/08/18 07:56:34;;;;;;;30.25;24.08;;;;;;;16.94;97.37;101230.63;5005384;28;20050;-67
2021/08/18 07:59:00;;;;;;;30.73;24.30;;;;;;;17.07;96.66;101236.25;5004229;28;20062;-66
2021/08/18 08:01:27;;;;;;;35.58;24.42;;;;;;;17.12;96.56;101236.13;4999305;28;20054;-63
2021/08/18 08:03:55;;;;;;;34.58;24.67;;;;;;;17.13;96.93;101237.81;4999261;28;20507;-65
2021/08/18 08:06:21;;;;;;;29.38;24.30;;;;;;;17.21;96.25;101235.75;5003270;28;20058;-64
2021/08/18 08:08:47;;;;;;;27.65;24.13;;;;;;;17.29;95.53;101233.69;4991920;28;20057;-67
2021/08/18 08:11:14;;;;;;;27.83;23.08;;;;;;;17.35;95.10;101235.22;4993630;28;20046;-66
2021/08/18 08:13:40;;;;;;;31.63;23.52;;;;;;;17.39;96.18;101239.41;4991006;28;20042;-65
2021/08/18 08:16:07;;;;;;;27.13;22.75;;;;;;;17.56;95.69;101237.00;4999100;28;20061;-65
2021/08/18 08:18:33;;;;;;;26.88;22.80;;;;;;;17.76;95.02;101255.50;4993253;28;20111;-66
2021/08/18 08:21:01;;;;;;;28.73;21.95;;;;;;;17.91;93.18;101243.47;4995392;28;20065;-67
2021/08/18 08:23:27;;;;;;;24.35;19.73;;;;;;;17.91;90.57;101246.09;4993371;28;20049;-67
2021/08/18 08:25:54;;;;;;;22.88;17.83;;;;;;;17.87;88.33;101240.94;4991473;28;20163;-67
2021/08/18 08:28:20;;;;;;;24.30;18.85;;;;;;;17.86;90.05;101244.53;4994973;28;20720;-67
2021/08/18 08:30:48;;;;;;;24.02;19.02;;;;;;;17.94;90.39;101238.94;4993966;28;20057;-67
2021/08/18 08:33:15;;;;;;;23.55;18.73;;;;;;;17.99;90.98;101247.53;4994283;28;20060;-68
2021/08/18 08:35:42;;;;;;;21.88;18.48;;;;;;;18.10;90.22;101241.78;4991848;28;20057;-67
2021/08/18 08:38:10;;;;;;;25.55;18.55;;;;;;;18.19;89.50;101248.47;4993208;28;20080;-67
2021/08/18 08:40:38;;;;;;;24.38;17.92;;;;;;;18.26;87.71;101239.34;4993587;28;20050;-67
2021/08/18 08:43:06;;;;;;;21.45;17.50;;;;;;;18.17;87.70;101240.59;4992724;28;20152;-67
2021/08/18 08:45:33;;;;;;;21.60;16.50;;;;;;;18.14;86.21;101237.25;4993544;28;20053;-68
2021/08/18 08:48:00;;;;;;;22.55;17.30;;;;;;;18.18;85.62;101236.22;4993618;28;20061;-68
2021/08/18 08:50:26;;;;;;;21.58;17.75;;;;;;;18.20;86.39;101241.41;4993775;28;20046;-68
2021/08/18 08:52:53;;;;;;;23.13;17.50;;;;;;;18.16;86.26;101238.03;5000362;28;20053;-67
2021/08/18 08:55:20;;;;;;;21.23;16.77;;;;;;;18.06;86.50;101242.00;5002700;28;20495;-68
2021/08/18 08:57:50;;;;;;;22.70;17.65;;;;;;;18.06;87.40;101239.38;4996077;28;20057;-67
2021/08/18 09:00:17;;;;;;;26.08;18.27;;;;;;;17.96;86.89;101242.38;5004571;28;20484;-68
2021/08/18 09:02:43;;;;;;;22.17;17.77;;;;;;;17.86;87.54;101244.53;4999726;28;20045;-67
2021/08/18 09:05:10;;;;;;;23.05;18.17;;;;;;;17.81;87.94;101248.28;5006673;28;20096;-67
2021/08/18 09:07:37;;;;;;;22.70;18.13;;;;;;;17.71;88.14;101247.78;5003894;28;20132;-67
2021/08/18 09:10:05;;;;;;;20.63;17.88;;;;;;;17.61;88.41;101252.59;5001363;28;20057;-67
2021/08/18 09:12:35;;;;;;;21.92;18.45;;;;;;;17.64;88.50;101252.44;5004865;28;20046;-67
2021/08/18 09:17:35;;;;;;;20.50;16.95;;;;;;;17.59;87.88;101246.50;4990454;28;20061;-65
2021/08/18 09:20:06;;;;;;;19.55;16.33;;;;;;;17.61;88.26;101251.72;5003679;28;20070;-66
2021/08/18 09:22:38;;;;;;;19.17;16.25;;;;;;;17.60;87.48;101250.00;5011109;28;20045;-66
2021/08/18 09:25:14;;;;;;;18.40;15.48;;;;;;;17.53;87.30;101252.88;5010469;28;20530;-66
2021/08/18 09:27:43;;;;;;;18.63;16.10;;;;;;;17.50;87.85;101247.72;4988411;28;20105;-66
2021/08/18 09:30:19;;;;;;;20.25;16.55;;;;;;;17.56;87.79;101241.38;4983559;28;20046;-66
2021/08/18 09:32:45;;;;;;;20.48;15.80;;;;;;;17.57;88.03;101243.09;4986961;28;20488;-67
2021/08/18 09:35:13;;;;;;;22.73;17.55;;;;;;;17.50;89.09;101247.72;4989988;28;20419;-66
2021/08/18 09:37:43;;;;;;;22.15;18.25;;;;;;;17.48;89.81;101246.94;4990159;28;20053;-66
2021/08/18 09:40:18;;;;;;;22.08;18.02;;;;;;;17.45;90.62;101240.94;4991528;28;20046;-66
2021/08/18 09:42:47;;;;;;;22.33;18.67;;;;;;;17.45;91.00;101235.69;4989525;28;20046;-66
2021/08/18 09:45:18;;;;;;;20.42;18.23;;;;;;;17.51;91.12;101238.94;4989185;28;20046;-67
2021/08/18 09:48:04;;;;;;;26.42;19.27;;;;;;;17.60;91.67;101237.72;4991886;28;20393;-67
2021/08/18 09:50:32;;;;;;;21.05;18.05;;;;;;;17.65;90.44;101233.09;4988417;28;20042;-67
2021/08/18 09:53:07;;;;;;;20.88;18.63;;;;;;;17.63;90.75;101232.31;4986858;28;20063;-67
2021/08/18 09:55:34;;;;;;;19.45;16.45;;;;;;;17.64;91.54;101241.06;4983326;28;20054;-67
2021/08/18 09:58:03;;;;;;;21.83;17.73;;;;;;;17.75;91.57;101238.84;4991533;28;20073;-67
2021/08/18 10:00:31;;;;;;;18.08;15.13;;;;;;;17.70;90.60;101233.78;4984669;28;20780;-67
2021/08/18 10:02:57;;;;;;;15.13;13.45;;;;;;;17.64;90.74;101241.06;4982293;28;20093;-67
2021/08/18 10:05:28;;;;;;;17.98;13.57;;;;;;;17.66;90.92;101237.44;4988755;28;20050;-67
2021/08/18 10:07:56;;;;;;;14.50;12.68;;;;;;;17.72;90.59;101233.72;4990988;28;20419;-67
2021/08/18 10:10:22;;;;;;;14.13;12.07;;;;;;;17.72;91.50;101237.19;4990199;28;20042;-67
2021/08/18 10:12:49;;;;;;;13.00;11.50;;;;;;;17.79;90.06;101229.06;4992766;28;20062;-68
2021/08/18 10:15:17;;;;;;;12.55;10.35;;;;;;;17.87;90.32;101227.78;4986271;28;20548;-67
2021/08/18 10:17:43;;;;;;;11.52;9.13;;;;;;;18.02;89.51;101223.69;4992168;28;20117;-66
2021/08/18 10:20:11;;;;;;;10.80;7.93;;;;;;;18.15;87.31;101224.03;4991626;28;20043;-66
2021/08/18 10:22:38;;;;;;;8.32;6.65;;;;;;;18.47;84.70;101228.81;4988546;28;20081;-68
2021/08/18 10:25:39;;;;;;;8.23;6.57;;;;;;;18.67;83.61;101219.97;4988627;28;20049;-66
2021/08/18 10:28:07;;;;;;;8.70;6.30;;;;;;;18.87;82.93;101224.34;4954889;28;20073;-67
2021/08/18 10:30:46;;;;;;;7.25;5.40;;;;;;;19.14;81.84;101220.53;4986362;28;20050;-67
2021/08/18 10:33:13;;;;;;;6.53;5.10;;;;;;;19.36;79.52;101222.97;4986670;28;20500;-66
2021/08/18 10:35:44;;;;;;;7.60;6.00;;;;;;;19.40;78.98;101224.56;4983223;28;20509;-67
2021/08/18 10:38:40;;;;;;;7.10;5.40;;;;;;;19.34;78.90;101220.44;4988521;28;20105;-67
2021/08/18 10:41:07;;;;;;;7.30;5.15;;;;;;;19.51;77.48;101216.97;4925494;29;20185;-66
2021/08/18 10:43:53;;;;;;;5.80;4.65;;;;;;;19.66;77.17;101218.00;4976085;28;20460;-67
2021/08/18 10:46:21;;;;;;;6.80;4.55;;;;;;;19.83;76.42;101216.28;4982339;28;20058;-67
2021/08/18 10:49:04;;;;;;;5.95;3.90;;;;;;;19.89;73.28;101223.91;4991944;28;20054;-66
2021/08/18 10:51:53;;;;;;;6.07;3.63;;;;;;;19.76;72.94;101222.81;4984232;28;20051;-67
2021/08/18 10:54:43;;;;;;;5.65;3.35;;;;;;;19.49;72.92;101223.22;4990373;28;20050;-67
2021/08/18 10:57:35;;;;;;;7.07;3.78;;;;;;;19.37;73.79;101224.69;4988092;28;20508;-68
2021/08/18 11:00:14;;;;;;;5.32;3.60;;;;;;;19.30;74.91;101218.03;4984334;28;20070;-67
2021/08/18 11:02:53;;;;;;;5.32;2.65;;;;;;;19.35;73.20;101216.88;4979659;28;20046;-67
2021/08/18 11:05:21;;;;;;;5.07;2.47;;;;;;;19.32;72.65;101219.66;4989501;28;20058;-67
2021/08/18 11:08:02;;;;;;;4.38;2.40;;;;;;;19.00;73.04;101224.66;4987985;28;20053;-67
2021/08/18 11:10:29;;;;;;;8.25;2.90;;;;;;;18.95;73.70;101226.69;4987909;28;20092;-67
2021/08/18 11:12:58;;;;;;;7.28;2.50;;;;;;;18.93;73.75;101226.72;4990593;28;20053;-67